Time;durP1;ratioP1;P1;durP2;ratioP2;P2;SDS_P1;SDS_P2;PMS_P1;PMS_P2;Temp;Humidity;BMP_temperature;BMP_pressure;BME280_temperature;BME280_humidity;BME280_pressure;Samples;Min_cycle;Max_cycle;Signal;HPM_P1;HPM_P2
2022/06/15 00:00:10;;;;;;;0.40;0.20;;;;;;;15.32;73.16;100303.34;4992215;28;20505;-51
2022/06/15 00:02:37;;;;;;;0.40;0.20;;;;;;;15.07;74.07;100301.84;4992571;28;20451;-50
2022/06/15 00:05:04;;;;;;;0.40;0.20;;;;;;;15.24;72.63;100302.88;4992488;28;20461;-50
2022/06/15 00:07:31;;;;;;;2.60;1.77;;;;;;;15.30;72.38;100294.53;4992540;28;20473;-51
2022/06/15 00:09:57;;;;;;;0.40;0.30;;;;;;;15.11;72.31;100302.59;4992508;28;20500;-50
2022/06/15 00:12:24;;;;;;;0.40;0.30;;;;;;;15.04;72.78;100298.44;4979224;28;20516;-50
2022/06/15 00:14:50;;;;;;;0.40;0.20;;;;;;;15.15;72.36;100295.25;4992235;28;20827;-50
2022/06/15 00:17:17;;;;;;;0.50;0.40;;;;;;;15.00;73.29;100297.72;4979128;28;20481;-50
2022/06/15 00:19:43;;;;;;;0.50;0.30;;;;;;;15.13;73.05;100292.66;4979660;28;20529;-50
2022/06/15 00:22:11;;;;;;;0.40;0.30;;;;;;;15.13;72.92;100294.47;4992687;28;20456;-51
2022/06/15 00:24:38;;;;;;;0.60;0.57;;;;;;;15.17;72.56;100302.28;4995770;28;20461;-50
2022/06/15 00:27:05;;;;;;;0.40;0.20;;;;;;;14.97;73.56;100308.59;4982716;28;20516;-51
2022/06/15 00:29:33;;;;;;;0.40;0.20;;;;;;;14.92;74.14;100301.69;4995758;28;20921;-50
2022/06/15 00:32:00;;;;;;;0.40;0.30;;;;;;;14.96;73.56;100303.31;4976439;28;20453;-51
2022/06/15 00:34:27;;;;;;;0.40;0.30;;;;;;;14.91;74.30;100300.81;4989434;28;20453;-50
2022/06/15 00:36:53;;;;;;;0.40;0.30;;;;;;;14.92;73.50;100291.84;4995640;28;20469;-50
2022/06/15 00:39:20;;;;;;;0.47;0.37;;;;;;;14.61;75.67;100297.75;4995322;28;20540;-51
2022/06/15 00:41:47;;;;;;;0.40;0.30;;;;;;;14.82;74.70;100288.75;4995980;28;20446;-50
2022/06/15 00:44:19;;;;;;;0.40;0.20;;;;;;;14.72;75.39;100290.09;4983642;28;20451;-49
2022/06/15 00:46:58;;;;;;;0.40;0.30;;;;;;;14.54;76.01;100295.44;4976022;28;20974;-51
2022/06/15 00:49:30;;;;;;;0.43;0.30;;;;;;;14.48;76.82;100301.91;4992236;28;20485;-50
2022/06/15 00:52:04;;;;;;;0.40;0.30;;;;;;;14.42;77.19;100291.44;4995244;28;20970;-50
2022/06/15 00:54:31;;;;;;;0.40;0.20;;;;;;;14.41;77.41;100297.75;4995416;28;20503;-50
2022/06/15 00:56:58;;;;;;;0.50;0.30;;;;;;;14.08;78.90;100287.56;4995187;28;21002;-49
2022/06/15 00:59:32;;;;;;;1.23;1.07;;;;;;;14.18;78.13;100288.91;4994923;28;20485;-51
2022/06/15 01:01:59;;;;;;;0.50;0.30;;;;;;;13.94;80.35;100293.50;4995156;28;20508;-49
2022/06/15 01:04:36;;;;;;;0.80;0.50;;;;;;;14.07;79.49;100296.50;4994964;28;20461;-49
2022/06/15 01:07:04;;;;;;;1.33;0.50;;;;;;;14.07;79.62;100296.50;4994828;28;20970;-50
2022/06/15 01:09:37;;;;;;;0.40;0.30;;;;;;;13.99;80.31;100293.31;4994941;28;20458;-50
2022/06/15 01:12:28;;;;;;;0.40;0.20;;;;;;;13.78;81.24;100297.75;4987549;28;20447;-49
2022/06/15 01:15:13;;;;;;;0.50;0.30;;;;;;;13.70;82.47;100294.50;4980992;28;20497;-49
2022/06/15 01:17:51;;;;;;;0.40;0.30;;;;;;;13.85;81.93;100293.91;4988667;28;20465;-50
2022/06/15 01:20:21;;;;;;;0.40;0.30;;;;;;;13.78;82.27;100295.06;4983692;28;20524;-50
2022/06/15 01:23:20;;;;;;;0.40;0.30;;;;;;;13.88;81.95;100295.56;4994547;28;20501;-49
2022/06/15 01:26:23;;;;;;;0.40;0.20;;;;;;;13.82;82.12;100286.00;4994729;28;20441;-49
2022/06/15 01:29:29;;;;;;;0.40;0.20;;;;;;;13.57;83.37;100290.63;4994802;28;20477;-50
2022/06/15 01:32:13;;;;;;;1.50;0.33;;;;;;;13.60;83.27;100290.50;4991096;28;20449;-50
2022/06/15 01:34:49;;;;;;;0.40;0.30;;;;;;;13.64;82.64;100286.75;4993840;28;20445;-49
2022/06/15 01:37:51;;;;;;;0.70;0.70;;;;;;;13.45;83.28;100284.00;4994257;28;21017;-50
2022/06/15 01:40:22;;;;;;;0.40;0.20;;;;;;;13.40;83.54;100282.41;4994226;28;20492;-50
2022/06/15 01:42:55;;;;;;;0.40;0.20;;;;;;;13.42;83.43;100284.09;4994409;28;20449;-50
2022/06/15 01:45:25;;;;;;;0.80;0.50;;;;;;;13.43;83.85;100283.19;4993272;28;20508;-50
2022/06/15 01:47:56;;;;;;;0.40;0.30;;;;;;;13.30;84.03;100279.28;4983069;28;20466;-50
2022/06/15 01:50:27;;;;;;;0.40;0.30;;;;;;;13.51;83.80;100290.88;4994064;28;20446;-49
2022/06/15 01:53:00;;;;;;;0.40;0.20;;;;;;;13.67;82.90;100286.63;4994440;28;20473;-49
2022/06/15 01:55:55;;;;;;;0.50;0.37;;;;;;;13.46;83.58;100284.84;4994260;28;20453;-49
2022/06/15 01:58:25;;;;;;;0.40;0.30;;;;;;;13.50;83.52;100278.44;4994007;28;20529;-49
2022/06/15 02:01:02;;;;;;;0.70;0.50;;;;;;;13.33;84.83;100279.13;4994058;28;20523;-50
2022/06/15 02:03:50;;;;;;;0.40;0.20;;;;;;;13.34;85.35;100276.41;4994004;28;20810;-49
2022/06/15 02:06:45;;;;;;;0.50;0.37;;;;;;;13.28;85.49;100279.31;4993925;28;20465;-49
2022/06/15 02:09:29;;;;;;;0.40;0.20;;;;;;;13.22;86.25;100276.03;4977792;28;20942;-49
2022/06/15 02:12:01;;;;;;;0.40;0.20;;;;;;;13.14;86.99;100278.94;4974637;28;20478;-50
2022/06/15 02:14:56;;;;;;;0.40;0.30;;;;;;;13.19;86.14;100271.69;4987496;28;20449;-49
2022/06/15 02:17:31;;;;;;;0.40;0.30;;;;;;;13.07;86.76;100266.78;4983840;28;20478;-49
2022/06/15 02:20:04;;;;;;;0.40;0.20;;;;;;;13.00;86.77;100262.59;4980881;28;20488;-49
2022/06/15 02:22:34;;;;;;;0.40;0.30;;;;;;;13.01;86.11;100264.34;4993624;28;20504;-49
2022/06/15 02:25:04;;;;;;;0.80;0.80;;;;;;;13.19;85.70;100260.13;4993598;28;20500;-49
2022/06/15 02:27:33;;;;;;;0.90;0.50;;;;;;;12.83;87.54;100265.06;4993470;28;20470;-50
2022/06/15 02:30:06;;;;;;;1.07;1.07;;;;;;;13.08;87.01;100257.84;4993341;28;20453;-49
2022/06/15 02:32:36;;;;;;;0.40;0.40;;;;;;;12.97;87.42;100258.25;4993295;28;20453;-50
2022/06/15 02:35:04;;;;;;;0.40;0.20;;;;;;;12.87;87.53;100264.88;4993510;28;21017;-50
2022/06/15 02:37:30;;;;;;;0.40;0.30;;;;;;;12.96;87.11;100256.53;4993192;28;20470;-50
2022/06/15 02:39:57;;;;;;;0.40;0.30;;;;;;;12.72;87.75;100258.31;4993196;28;20489;-50
2022/06/15 02:42:26;;;;;;;0.40;0.20;;;;;;;12.74;88.57;100260.94;4993128;28;20445;-50
2022/06/15 02:44:56;;;;;;;0.40;0.20;;;;;;;12.89;87.64;100262.19;4993239;28;20457;-49
2022/06/15 02:47:27;;;;;;;0.47;0.30;;;;;;;12.87;87.66;100264.00;4980193;28;20596;-50
2022/06/15 02:49:54;;;;;;;0.40;0.20;;;;;;;12.65;89.08;100259.50;4993544;28;20445;-50
2022/06/15 02:52:25;;;;;;;0.40;0.40;;;;;;;12.57;89.92;100264.25;4993137;28;20457;-50
2022/06/15 02:54:54;;;;;;;0.47;0.47;;;;;;;12.67;89.72;100275.44;4993124;28;20496;-50
2022/06/15 02:57:22;;;;;;;0.50;0.50;;;;;;;12.78;89.18;100272.38;4993498;28;20919;-49
2022/06/15 02:59:49;;;;;;;0.80;0.80;;;;;;;12.77;89.76;100268.84;4993615;28;20912;-50
2022/06/15 03:02:16;;;;;;;0.50;0.50;;;;;;;12.59;90.51;100266.84;4993332;28;20489;-50
2022/06/15 03:04:44;;;;;;;0.40;0.30;;;;;;;12.73;90.78;100270.72;4993207;28;20477;-50
2022/06/15 03:07:12;;;;;;;0.40;0.20;;;;;;;12.84;90.10;100270.34;4992797;28;20473;-49
2022/06/15 03:09:39;;;;;;;0.40;0.20;;;;;;;12.63;90.79;100271.16;4992831;28;20456;-50
2022/06/15 03:12:07;;;;;;;0.40;0.20;;;;;;;12.80;90.12;100274.06;4985513;28;20477;-50
2022/06/15 03:14:34;;;;;;;0.40;0.20;;;;;;;12.75;91.08;100274.25;4986508;28;20523;-50
2022/06/15 03:17:01;;;;;;;0.30;0.20;;;;;;;12.78;90.74;100275.03;4981726;28;20481;-50
2022/06/15 03:19:28;;;;;;;0.40;0.20;;;;;;;12.80;90.13;100270.53;4979605;28;20485;-50
2022/06/15 03:21:55;;;;;;;0.50;0.27;;;;;;;12.81;90.54;100280.25;4992815;28;20449;-48
2022/06/15 03:24:21;;;;;;;0.40;0.30;;;;;;;12.87;90.49;100278.22;4992966;28;20453;-49
2022/06/15 03:26:48;;;;;;;3.80;2.00;;;;;;;12.91;90.16;100279.00;4992888;28;20473;-49
2022/06/15 03:29:15;;;;;;;0.40;0.30;;;;;;;12.83;90.33;100278.41;4992853;28;20445;-49
2022/06/15 03:31:41;;;;;;;0.30;0.20;;;;;;;12.77;90.04;100279.50;4992820;28;21001;-49
2022/06/15 03:34:08;;;;;;;0.40;0.20;;;;;;;12.83;90.31;100279.28;4992630;28;20453;-49
2022/06/15 03:36:34;;;;;;;4.80;3.50;;;;;;;12.72;90.25;100282.34;4992552;28;20504;-49
2022/06/15 03:39:01;;;;;;;19.67;1.37;;;;;;;12.69;90.64;100278.91;4992535;28;20454;-48
2022/06/15 03:41:28;;;;;;;2.20;0.60;;;;;;;12.57;90.84;100282.03;4992771;28;20592;-49
2022/06/15 03:43:55;;;;;;;0.40;0.40;;;;;;;12.53;91.42;100273.28;4992967;28;20453;-49
2022/06/15 03:46:23;;;;;;;0.40;0.30;;;;;;;12.55;91.61;100279.44;4982967;28;20525;-49
2022/06/15 03:48:49;;;;;;;0.40;0.20;;;;;;;12.60;91.24;100290.78;4989679;28;20532;-49
2022/06/15 03:51:16;;;;;;;0.40;0.30;;;;;;;12.53;91.47;100283.97;4992401;28;20446;-49
2022/06/15 03:53:43;;;;;;;0.40;0.20;;;;;;;12.62;90.78;100282.75;4992708;28;20523;-49
2022/06/15 03:56:09;;;;;;;0.40;0.20;;;;;;;12.49;92.05;100285.00;4992609;28;20473;-49
2022/06/15 03:58:36;;;;;;;0.40;0.20;;;;;;;12.52;92.31;100282.22;4995346;28;20899;-49
2022/06/15 04:01:02;;;;;;;0.40;0.30;;;;;;;12.31;92.85;100291.84;4996203;28;20979;-50
2022/06/15 04:03:29;;;;;;;2.10;1.00;;;;;;;12.59;92.19;100289.06;4996139;28;20449;-49
2022/06/15 04:05:58;;;;;;;0.47;0.47;;;;;;;12.71;91.48;100290.41;4995886;28;20819;-48
2022/06/15 04:08:42;;;;;;;12.60;3.87;;;;;;;12.60;92.41;100281.91;4995988;28;20488;-50
2022/06/15 04:11:10;;;;;;;0.40;0.30;;;;;;;12.48;93.06;100271.72;4995362;28;20792;-48
2022/06/15 04:13:38;;;;;;;0.40;0.30;;;;;;;12.79;92.10;100275.00;4989185;28;20943;-49
2022/06/15 04:16:07;;;;;;;0.80;0.80;;;;;;;12.83;92.30;100275.72;4977657;28;20474;-50
2022/06/15 04:18:34;;;;;;;0.33;0.20;;;;;;;13.03;91.52;100271.38;4988264;28;20812;-50
2022/06/15 04:21:01;;;;;;;2.37;1.70;;;;;;;13.25;90.82;100267.88;4977428;28;20486;-49
2022/06/15 04:23:27;;;;;;;0.63;0.63;;;;;;;13.13;91.16;100263.00;4995882;28;20453;-49
2022/06/15 04:25:59;;;;;;;0.40;0.30;;;;;;;13.22;91.15;100270.69;4995680;28;20449;-49
2022/06/15 04:28:29;;;;;;;0.30;0.20;;;;;;;13.93;88.83;100267.72;4995854;28;20480;-50
2022/06/15 04:30:56;;;;;;;0.40;0.40;;;;;;;15.53;81.73;100274.69;4995481;28;20453;-49
2022/06/15 04:33:24;;;;;;;0.40;0.20;;;;;;;16.33;77.50;100276.91;4995658;28;20457;-50
2022/06/15 04:35:51;;;;;;;0.40;0.20;;;;;;;16.43;76.54;100275.44;4995625;28;20831;-49
2022/06/15 04:38:18;;;;;;;0.40;0.20;;;;;;;17.15;73.67;100280.50;4995603;28;20460;-49
2022/06/15 04:40:45;;;;;;;0.60;0.60;;;;;;;17.55;71.79;100281.78;4995949;28;20584;-49
2022/06/15 04:43:12;;;;;;;2.43;2.23;;;;;;;17.76;70.31;100277.00;4991622;28;20520;-49
2022/06/15 04:45:38;;;;;;;0.50;0.30;;;;;;;18.07;67.87;100281.44;4978566;28;20462;-49
2022/06/15 04:48:05;;;;;;;1.33;0.30;;;;;;;18.04;66.77;100292.38;4986114;28;20473;-49
2022/06/15 04:50:32;;;;;;;0.40;0.40;;;;;;;18.28;66.50;100292.75;4994714;28;20869;-49
2022/06/15 04:53:00;;;;;;;0.47;0.37;;;;;;;18.55;65.52;100288.38;4995346;28;20477;-48
2022/06/15 04:55:27;;;;;;;0.60;0.50;;;;;;;18.60;65.18;100288.94;4995306;28;20508;-49
2022/06/15 04:57:56;;;;;;;1.37;0.97;;;;;;;18.91;63.98;100284.38;4995174;28;20493;-49
2022/06/15 05:00:24;;;;;;;1.17;0.63;;;;;;;18.97;63.96;100289.38;4994831;28;20525;-49
2022/06/15 05:02:51;;;;;;;1.00;1.00;;;;;;;19.11;62.90;100291.19;4995273;28;20874;-49
2022/06/15 05:05:18;;;;;;;0.80;0.80;;;;;;;19.28;62.60;100285.59;4994428;28;20449;-49
2022/06/15 05:07:45;;;;;;;0.50;0.33;;;;;;;19.48;61.14;100289.69;4995221;28;20474;-50
2022/06/15 05:10:18;;;;;;;0.93;0.77;;;;;;;19.39;61.38;100291.16;4993142;28;20445;-49
2022/06/15 05:12:46;;;;;;;0.50;0.30;;;;;;;19.61;60.85;100290.66;4981612;28;20912;-50
2022/06/15 05:15:15;;;;;;;48.53;1.20;;;;;;;19.43;62.07;100295.38;4977733;28;20952;-49
2022/06/15 05:17:43;;;;;;;0.70;0.70;;;;;;;19.81;61.52;100289.31;4989035;28;20991;-49
2022/06/15 05:20:13;;;;;;;1.40;1.40;;;;;;;19.13;64.75;100295.53;4975194;28;20486;-50
2022/06/15 05:22:40;;;;;;;1.00;1.00;;;;;;;19.47;64.29;100294.22;4989712;28;20449;-50
2022/06/15 05:25:09;;;;;;;0.63;0.60;;;;;;;19.40;63.42;100292.03;4994529;28;21060;-50
2022/06/15 05:27:38;;;;;;;0.50;0.30;;;;;;;19.60;63.41;100288.03;4994560;28;20473;-50
2022/06/15 05:30:06;;;;;;;23.97;2.27;;;;;;;19.63;63.47;100291.41;4994778;28;20481;-50
2022/06/15 05:32:34;;;;;;;0.60;0.40;;;;;;;19.86;63.28;100295.25;4994424;28;20478;-49
2022/06/15 05:35:01;;;;;;;0.40;0.20;;;;;;;20.34;60.89;100296.47;4994364;28;20457;-49
2022/06/15 05:37:30;;;;;;;0.50;0.47;;;;;;;20.53;59.84;100293.38;4994361;28;20552;-50
2022/06/15 05:39:57;;;;;;;0.50;0.40;;;;;;;21.13;55.43;100300.84;4994610;28;20819;-50
2022/06/15 05:42:28;;;;;;;0.40;0.20;;;;;;;21.54;53.45;100292.44;4993893;28;20508;-50
2022/06/15 05:44:56;;;;;;;0.50;0.30;;;;;;;21.77;52.22;100290.69;4994288;28;20901;-50
2022/06/15 05:47:23;;;;;;;0.73;0.70;;;;;;;21.56;52.84;100287.75;4980883;28;20986;-51
2022/06/15 05:49:50;;;;;;;0.50;0.40;;;;;;;21.38;53.60;100293.66;4994051;28;20468;-50
2022/06/15 05:52:16;;;;;;;0.60;0.33;;;;;;;21.77;53.38;100293.41;4993705;28;20847;-50
2022/06/15 05:54:43;;;;;;;0.50;0.30;;;;;;;21.55;53.36;100296.00;4994260;28;20450;-49
2022/06/15 05:57:23;;;;;;;0.73;0.50;;;;;;;21.83;52.36;100297.50;4993710;28;20536;-49
2022/06/15 05:59:51;;;;;;;1.33;1.23;;;;;;;22.10;52.16;100294.59;4994004;28;20457;-49
2022/06/15 06:02:21;;;;;;;1.67;1.57;;;;;;;22.32;51.71;100300.06;4987492;28;20489;-50
2022/06/15 06:04:49;;;;;;;0.50;0.37;;;;;;;22.30;50.98;100291.19;4977376;28;20458;-50
2022/06/15 06:07:19;;;;;;;0.50;0.30;;;;;;;22.24;51.50;100290.81;4993756;28;21016;-50
2022/06/15 06:09:46;;;;;;;0.50;0.47;;;;;;;22.34;51.04;100286.41;4993842;28;20508;-50
2022/06/15 06:12:13;;;;;;;0.60;0.50;;;;;;;22.20;52.64;100283.88;4985199;28;20451;-50
2022/06/15 06:14:40;;;;;;;0.40;0.30;;;;;;;22.61;51.28;100281.53;4987148;28;20514;-49
2022/06/15 06:17:08;;;;;;;0.60;0.33;;;;;;;23.10;49.41;100283.09;4982849;28;20507;-49
2022/06/15 06:19:35;;;;;;;0.50;0.40;;;;;;;22.98;50.74;100279.50;4980438;28;20460;-50
2022/06/15 06:22:02;;;;;;;0.60;0.40;;;;;;;23.40;50.03;100281.56;4993895;28;20493;-49
2022/06/15 06:24:29;;;;;;;0.50;0.30;;;;;;;23.98;48.27;100272.16;4994298;28;20462;-51
2022/06/15 06:27:05;;;;;;;0.50;0.30;;;;;;;23.69;48.79;100273.75;4993404;28;20473;-50
2022/06/15 06:29:34;;;;;;;0.90;0.30;;;;;;;23.66;48.45;100277.59;4993434;28;20504;-50
2022/06/15 06:32:01;;;;;;;0.40;0.30;;;;;;;23.58;48.78;100277.38;4993379;28;20450;-50
2022/06/15 06:34:29;;;;;;;0.60;0.60;;;;;;;23.16;49.43;100284.41;4993236;28;20457;-51
2022/06/15 06:36:58;;;;;;;0.70;0.70;;;;;;;23.48;49.28;100284.53;4993230;28;20564;-50
2022/06/15 06:39:27;;;;;;;0.60;0.60;;;;;;;23.74;48.22;100282.41;4993074;28;20450;-49
2022/06/15 06:41:55;;;;;;;1.70;0.50;;;;;;;23.61;48.89;100283.41;4993121;28;21022;-49
2022/06/15 06:44:22;;;;;;;1.17;0.87;;;;;;;23.94;48.25;100277.00;4993115;28;20449;-50
2022/06/15 06:46:51;;;;;;;0.63;0.57;;;;;;;23.82;48.37;100288.88;4980487;28;20485;-49
2022/06/15 06:49:19;;;;;;;0.70;0.67;;;;;;;24.00;47.34;100289.22;4975550;28;20958;-49
2022/06/15 06:51:47;;;;;;;0.40;0.20;;;;;;;24.32;47.64;100288.34;4993179;28;20442;-49
2022/06/15 06:54:16;;;;;;;0.60;0.50;;;;;;;23.69;48.62;100287.34;4993333;28;20457;-50
2022/06/15 06:56:43;;;;;;;0.70;0.50;;;;;;;23.88;49.07;100285.69;4992597;28;20477;-49
2022/06/15 06:59:12;;;;;;;0.50;0.30;;;;;;;24.05;48.42;100280.66;4992725;28;20496;-50
2022/06/15 07:01:41;;;;;;;0.50;0.33;;;;;;;24.43;47.90;100280.16;4992750;28;20902;-50
2022/06/15 07:04:11;;;;;;;0.50;0.30;;;;;;;23.84;49.04;100273.34;4992818;28;20950;-50
2022/06/15 07:06:39;;;;;;;0.60;0.50;;;;;;;24.40;48.34;100286.72;4992753;28;20556;-50
2022/06/15 07:09:05;;;;;;;0.40;0.30;;;;;;;24.35;48.28;100282.66;4992730;28;20901;-50
2022/06/15 07:11:32;;;;;;;2.10;1.47;;;;;;;24.80;46.82;100286.78;4989238;28;20948;-50
2022/06/15 07:13:59;;;;;;;0.40;0.20;;;;;;;24.37;48.64;100283.38;4983709;28;20509;-50
2022/06/15 07:16:26;;;;;;;0.40;0.20;;;;;;;24.44;48.18;100287.31;4979413;28;20470;-50
2022/06/15 07:18:53;;;;;;;0.50;0.40;;;;;;;24.59;49.21;100285.97;4982055;28;20883;-50
2022/06/15 07:21:23;;;;;;;0.50;0.30;;;;;;;24.47;48.84;100285.16;4990168;28;20812;-50
2022/06/15 07:23:52;;;;;;;0.60;0.60;;;;;;;24.18;48.48;100289.50;4992557;28;20454;-51
2022/06/15 07:26:23;;;;;;;1.37;0.80;;;;;;;25.01;47.36;100297.69;4992667;28;20523;-51
2022/06/15 07:28:49;;;;;;;0.50;0.30;;;;;;;24.99;46.68;100288.75;4992868;28;20449;-51
2022/06/15 07:31:27;;;;;;;0.70;0.60;;;;;;;25.08;46.86;100290.72;4993755;28;20458;-51
2022/06/15 07:33:54;;;;;;;1.43;0.60;;;;;;;25.14;46.88;100293.88;4978752;28;20536;-49
2022/06/15 07:36:25;;;;;;;0.40;0.30;;;;;;;25.22;47.13;100291.31;4996027;28;20469;-49
2022/06/15 07:38:53;;;;;;;0.40;0.30;;;;;;;25.15;46.73;100288.28;4996423;28;20524;-50
2022/06/15 07:41:21;;;;;;;0.60;0.30;;;;;;;25.29;46.45;100295.22;4996678;28;20528;-52
2022/06/15 07:43:48;;;;;;;0.40;0.30;;;;;;;25.23;46.48;100287.63;4996514;28;20488;-51
2022/06/15 07:46:15;;;;;;;0.50;0.30;;;;;;;25.32;45.85;100287.63;4987822;28;20469;-53
2022/06/15 07:51:30;;;;;;;0.80;0.50;;;;;;;25.16;47.08;100281.84;4996852;28;20511;-52
2022/06/15 07:53:59;;;;;;;0.50;0.30;;;;;;;25.56;46.49;100283.69;4996638;28;20503;-52
2022/06/15 07:56:26;;;;;;;0.40;0.30;;;;;;;25.21;47.21;100276.84;4996264;28;20488;-52
2022/06/15 07:58:53;;;;;;;0.50;0.30;;;;;;;25.77;46.37;100284.47;4996160;28;20515;-52
2022/06/15 08:01:22;;;;;;;0.50;0.50;;;;;;;25.34;45.86;100287.47;4995898;28;20531;-51
2022/06/15 08:03:50;;;;;;;0.50;0.30;;;;;;;25.76;46.04;100280.00;4996125;28;20823;-51
2022/06/15 08:06:18;;;;;;;0.40;0.30;;;;;;;25.90;45.23;100281.47;4995636;28;20946;-52
2022/06/15 08:08:44;;;;;;;0.67;0.67;;;;;;;25.72;46.15;100281.31;4995945;28;20931;-52
2022/06/15 08:11:11;;;;;;;0.40;0.20;;;;;;;26.24;45.50;100280.03;4994366;28;20946;-52
2022/06/15 08:13:43;;;;;;;1.17;1.17;;;;;;;26.29;44.80;100276.88;4967578;28;20461;-51
2022/06/15 08:16:11;;;;;;;0.40;0.20;;;;;;;26.80;43.66;100276.53;4965610;28;20521;-52
2022/06/15 08:18:44;;;;;;;0.73;0.67;;;;;;;26.90;42.74;100278.38;4987484;28;21013;-52
2022/06/15 08:21:20;;;;;;;0.50;0.30;;;;;;;26.55;43.04;100274.44;4992206;28;20489;-52
2022/06/15 08:23:49;;;;;;;0.60;0.60;;;;;;;26.36;43.00;100278.06;4996018;28;20864;-53
2022/06/15 08:26:20;;;;;;;0.60;0.40;;;;;;;26.92;41.68;100273.63;4995413;28;20472;-52
2022/06/15 08:28:51;;;;;;;0.50;0.50;;;;;;;26.50;41.44;100272.16;4995691;28;20482;-53
2022/06/15 08:31:19;;;;;;;3.10;0.60;;;;;;;26.28;41.86;100264.25;4976320;28;20446;-51
2022/06/15 08:33:46;;;;;;;0.67;0.63;;;;;;;26.58;41.81;100276.84;4989296;28;20449;-51
2022/06/15 08:36:18;;;;;;;0.40;0.27;;;;;;;26.61;41.51;100265.69;4995341;28;20500;-52
2022/06/15 08:38:46;;;;;;;0.60;0.50;;;;;;;26.72;40.49;100265.47;4977783;28;20462;-51
2022/06/15 08:41:31;;;;;;;0.40;0.30;;;;;;;27.14;41.33;100252.31;4995561;28;20493;-53
2022/06/15 08:44:31;;;;;;;0.53;0.50;;;;;;;27.12;40.96;100259.75;4995153;28;20446;-51
2022/06/15 08:47:28;;;;;;;1.33;0.30;;;;;;;27.37;40.68;100255.47;4978579;28;21038;-51
2022/06/15 08:50:06;;;;;;;0.50;0.50;;;;;;;26.73;40.79;100259.03;4995480;28;20449;-51
2022/06/15 08:52:50;;;;;;;0.63;0.57;;;;;;;26.92;41.04;100265.44;4975999;28;20450;-52
2022/06/15 08:55:41;;;;;;;11.20;1.80;;;;;;;27.54;41.02;100258.38;4992522;28;20446;-50
2022/06/15 08:58:25;;;;;;;0.50;0.40;;;;;;;27.85;39.92;100253.47;4994924;28;20453;-51
2022/06/15 09:00:57;;;;;;;0.50;0.30;;;;;;;27.79;39.26;100265.84;4995405;28;20445;-51
2022/06/15 09:03:45;;;;;;;2.57;0.63;;;;;;;27.90;38.81;100262.03;4994945;28;20504;-51
2022/06/15 09:06:22;;;;;;;0.50;0.30;;;;;;;28.50;37.91;100260.34;4995180;28;20480;-50
2022/06/15 09:08:51;;;;;;;0.70;0.60;;;;;;;28.19;39.54;100261.78;4975767;28;20421;-50
2022/06/15 09:11:35;;;;;;;1.47;1.37;;;;;;;28.02;38.64;100263.53;4992884;28;20442;-52
2022/06/15 09:14:21;;;;;;;5.60;1.33;;;;;;;27.80;38.35;100256.66;4985946;28;20457;-51
2022/06/15 09:17:18;;;;;;;0.50;0.30;;;;;;;27.61;38.29;100265.81;4976971;28;20525;-51
2022/06/15 09:19:53;;;;;;;0.40;0.23;;;;;;;27.39;38.67;100269.81;4981540;28;20548;-53
2022/06/15 09:22:29;;;;;;;0.57;0.30;;;;;;;27.32;38.63;100256.94;4994708;28;20601;-51
2022/06/15 09:25:10;;;;;;;0.50;0.40;;;;;;;27.98;37.84;100253.94;4994567;28;20993;-52
2022/06/15 09:28:09;;;;;;;0.50;0.30;;;;;;;27.48;38.65;100257.13;4994528;28;20469;-52
2022/06/15 09:30:40;;;;;;;0.50;0.40;;;;;;;28.23;37.81;100258.56;4977421;28;20956;-52
2022/06/15 09:33:20;;;;;;;0.50;0.30;;;;;;;28.37;37.40;100259.91;4994724;28;20470;-52
2022/06/15 09:35:53;;;;;;;0.70;0.70;;;;;;;28.21;36.80;100255.16;4994260;28;20923;-52
2022/06/15 09:38:20;;;;;;;1.33;1.30;;;;;;;28.17;38.60;100248.28;4994208;28;20450;-53
2022/06/15 09:41:09;;;;;;;4.33;2.23;;;;;;;27.79;38.83;100254.94;4994478;28;20449;-50
2022/06/15 09:44:08;;;;;;;0.50;0.43;;;;;;;27.81;38.04;100250.16;4994134;28;21016;-52
2022/06/15 09:46:58;;;;;;;0.40;0.30;;;;;;;27.71;38.54;100255.72;4976260;28;20481;-52
2022/06/15 09:49:37;;;;;;;0.87;0.40;;;;;;;28.35;37.31;100247.41;4993946;28;20453;-50
2022/06/15 09:52:16;;;;;;;0.53;0.50;;;;;;;28.31;37.56;100249.63;4976994;28;20442;-52
2022/06/15 09:55:07;;;;;;;0.70;0.70;;;;;;;27.99;37.49;100240.09;4993741;28;20445;-51
2022/06/15 09:57:39;;;;;;;0.90;0.60;;;;;;;28.26;37.53;100250.13;4993687;28;20912;-51
2022/06/15 10:00:10;;;;;;;3.80;1.37;;;;;;;28.41;38.34;100239.47;4993482;28;20458;-53
2022/06/15 10:02:40;;;;;;;0.90;0.50;;;;;;;28.42;37.94;100246.63;4993840;28;20508;-51
2022/06/15 10:05:18;;;;;;;0.60;0.60;;;;;;;27.97;37.93;100244.03;4993566;28;20950;-50
2022/06/15 10:07:45;;;;;;;1.17;1.17;;;;;;;28.25;37.26;100239.31;4993614;28;21001;-51
2022/06/15 10:10:27;;;;;;;0.50;0.33;;;;;;;28.86;36.10;100243.84;4993049;28;20450;-51
2022/06/15 10:13:04;;;;;;;0.50;0.40;;;;;;;28.82;36.76;100247.94;4980694;28;20438;-51
2022/06/15 10:15:33;;;;;;;0.70;0.70;;;;;;;28.68;37.22;100243.91;4984672;28;20741;-52
2022/06/15 10:18:14;;;;;;;1.17;0.97;;;;;;;28.47;37.63;100240.69;4986997;28;20470;-50
2022/06/15 10:20:42;;;;;;;0.47;0.30;;;;;;;28.68;37.26;100237.59;4985054;28;20990;-51
2022/06/15 10:23:32;;;;;;;0.60;0.50;;;;;;;28.77;37.61;100234.72;4993449;28;20489;-51
2022/06/15 10:25:58;;;;;;;0.63;0.63;;;;;;;28.64;37.16;100231.56;4993410;28;20479;-51
2022/06/15 10:28:40;;;;;;;0.40;0.30;;;;;;;28.99;37.34;100230.59;4993528;28;20864;-51
2022/06/15 10:31:15;;;;;;;0.40;0.30;;;;;;;28.87;36.63;100238.22;4993102;28;20449;-50
2022/06/15 10:33:47;;;;;;;0.53;0.53;;;;;;;29.14;36.53;100225.34;4993493;28;20452;-51
2022/06/15 10:36:34;;;;;;;1.23;0.77;;;;;;;29.66;36.85;100227.94;4993210;28;20527;-52
2022/06/15 10:39:07;;;;;;;6.07;0.70;;;;;;;30.12;35.23;100231.09;4993044;28;20445;-51
2022/06/15 10:42:08;;;;;;;2.87;1.30;;;;;;;29.35;36.73;100219.44;4993644;28;20571;-52
2022/06/15 10:44:40;;;;;;;0.57;0.50;;;;;;;29.11;37.81;100223.81;4981623;28;20453;-52
2022/06/15 10:47:24;;;;;;;0.50;0.30;;;;;;;29.91;35.94;100226.09;4979877;28;20474;-52
2022/06/15 10:49:59;;;;;;;0.50;0.30;;;;;;;29.29;35.69;100228.31;4993173;28;20500;-51
2022/06/15 10:52:48;;;;;;;0.60;0.43;;;;;;;29.79;36.78;100222.81;4993234;28;20441;-52
2022/06/15 11:04:05;;;;;;;0.50;0.40;;;;;;;29.51;35.68;100208.56;5025472;28;20529;-54
2022/06/15 11:06:43;;;;;;;0.40;0.30;;;;;;;30.04;35.45;100215.47;5050083;28;20467;-54
2022/06/15 11:09:59;;;;;;;0.57;0.50;;;;;;;29.93;33.44;100211.19;5040198;28;20467;-54
2022/06/15 11:12:36;;;;;;;4.13;0.73;;;;;;;30.02;34.55;100207.44;5007629;28;20447;-53
2022/06/15 11:15:13;;;;;;;0.50;0.30;;;;;;;30.05;33.31;100204.38;5033240;28;20486;-53
2022/06/15 11:18:03;;;;;;;15.67;0.87;;;;;;;30.02;33.56;100203.84;5037988;28;20463;-54
2022/06/15 11:20:35;;;;;;;0.50;0.40;;;;;;;30.00;33.86;100198.50;5041803;28;20998;-54
2022/06/15 11:23:21;;;;;;;0.50;0.40;;;;;;;29.89;33.39;100198.84;5045349;28;20538;-53
2022/06/15 11:29:24;;;;;;;1.03;1.03;;;;;;;29.70;32.83;100194.53;5004087;28;20472;-53
2022/06/15 11:32:33;;;;;;;0.87;0.70;;;;;;;30.67;32.06;100192.81;5040532;28;20423;-54
2022/06/15 11:35:02;;;;;;;0.50;0.40;;;;;;;30.11;33.88;100194.59;5006361;28;20443;-54
2022/06/15 11:37:55;;;;;;;0.50;0.30;;;;;;;29.85;34.14;100196.59;5038855;28;20585;-53
2022/06/15 11:40:38;;;;;;;1.17;1.10;;;;;;;29.87;34.40;100194.53;5038547;28;20498;-54
2022/06/15 11:43:20;;;;;;;0.93;0.93;;;;;;;30.53;33.68;100188.00;5042366;28;20496;-53
2022/06/15 11:45:55;;;;;;;0.83;0.83;;;;;;;30.03;34.27;100186.34;5030442;28;20448;-53
2022/06/15 11:48:56;;;;;;;1.00;1.00;;;;;;;30.38;33.84;100185.97;5044696;28;20466;-53
2022/06/15 11:52:00;;;;;;;1.90;0.70;;;;;;;30.31;33.90;100192.34;4984633;28;20449;-53
2022/06/15 11:54:46;;;;;;;0.60;0.60;;;;;;;29.92;33.86;100192.16;4962925;28;20512;-53
2022/06/15 11:57:36;;;;;;;0.67;0.60;;;;;;;29.83;34.12;100180.34;5044122;28;20501;-53
2022/06/15 12:00:28;;;;;;;0.80;0.60;;;;;;;30.25;33.95;100185.66;5045246;28;20523;-53
2022/06/15 12:03:01;;;;;;;0.80;0.67;;;;;;;30.17;34.00;100171.97;5024871;28;20910;-53
2022/06/15 12:05:42;;;;;;;0.70;0.70;;;;;;;30.72;33.70;100173.09;5025736;28;20501;-54